Time;durP1;ratioP1;P1;durP2;ratioP2;P2;SDS_P1;SDS_P2;PMS_P1;PMS_P2;Temp;Humidity;BMP_temperature;BMP_pressure;BME280_temperature;BME280_humidity;BME280_pressure;Samples;Min_cycle;Max_cycle;Signal;HPM_P1;HPM_P2
2023/01/13 00:00:56;;;;;;;31.58;4.40;;;;;;;-143.48;82.29;118439.88;5016274;28;20380;-26
2023/01/13 00:03:22;;;;;;;35.35;4.38;;;;;;;-143.48;82.10;118439.88;5015777;28;20380;-27
2023/01/13 00:05:47;;;;;;;31.85;4.45;;;;;;;-143.48;82.43;118439.88;5014703;28;20033;-26
2023/01/13 00:08:12;;;;;;;28.33;4.13;;;;;;;-143.48;80.29;118439.88;5014109;28;20013;-27
2023/01/13 00:10:38;;;;;;;37.42;4.13;;;;;;;-143.48;78.54;118439.88;5015166;28;20468;-26
2023/01/13 00:13:04;;;;;;;26.73;4.32;;;;;;;-143.48;79.00;118439.88;5016039;28;20061;-27
2023/01/13 00:15:30;;;;;;;26.20;4.15;;;;;;;-143.48;77.69;118439.88;5016408;28;20479;-26
2023/01/13 00:17:55;;;;;;;27.75;3.50;;;;;;;-143.48;77.20;118439.88;5013332;28;20022;-26
2023/01/13 00:20:20;;;;;;;30.10;4.28;;;;;;;-143.48;76.92;118439.88;5013481;28;20028;-27
2023/01/13 00:22:45;;;;;;;23.38;3.38;;;;;;;-143.48;78.22;118439.88;5013501;28;20643;-27
2023/01/13 00:25:11;;;;;;;37.28;4.18;;;;;;;-143.48;76.01;118439.88;5013395;28;20116;-27
2023/01/13 00:27:37;;;;;;;32.00;4.63;;;;;;;-143.48;75.21;118439.88;5013326;28;20059;-26
2023/01/13 00:30:03;;;;;;;31.25;4.15;;;;;;;-143.48;75.85;118439.88;5013222;28;20022;-26
2023/01/13 00:32:28;;;;;;;34.17;4.20;;;;;;;-143.48;74.52;118439.88;5014442;28;20045;-26
2023/01/13 00:34:54;;;;;;;28.38;4.50;;;;;;;-143.48;73.49;118439.88;5015342;28;20544;-26
2023/01/13 00:37:19;;;;;;;31.83;4.32;;;;;;;-143.48;74.22;118439.88;4998455;28;20014;-26
2023/01/13 00:39:45;;;;;;;30.33;3.92;;;;;;;-143.48;73.30;118439.88;4997656;28;20040;-26
2023/01/13 00:44:55;;;;;;;30.00;4.38;;;;;;;-143.48;74.39;118439.88;5015455;28;20511;-26
2023/01/13 00:47:20;;;;;;;26.92;3.85;;;;;;;-143.48;75.28;118439.88;5014996;28;20054;-26
2023/01/13 00:49:45;;;;;;;38.28;4.78;;;;;;;-143.48;74.56;118439.88;5015687;28;20100;-26
2023/01/13 00:52:11;;;;;;;26.88;4.45;;;;;;;-143.48;75.18;118439.88;4998158;28;20044;-26
2023/01/13 00:54:36;;;;;;;34.60;4.65;;;;;;;-143.48;75.80;118439.88;5015760;28;20038;-27
2023/01/13 00:57:03;;;;;;;32.45;4.43;;;;;;;-143.48;75.72;118439.88;5013706;28;20113;-27
2023/01/13 00:59:29;;;;;;;27.10;4.65;;;;;;;-143.48;77.47;118439.88;5014718;28;20029;-26
2023/01/13 01:01:54;;;;;;;31.92;3.78;;;;;;;-143.48;76.83;118439.88;5013968;28;20088;-26
2023/01/13 01:04:19;;;;;;;35.53;4.32;;;;;;;-143.48;76.83;118439.88;5014755;28;20037;-26
2023/01/13 01:06:45;;;;;;;38.63;4.18;;;;;;;-143.48;77.37;118439.88;5015051;28;20034;-26
2023/01/13 01:09:14;;;;;;;33.15;3.92;;;;;;;-143.48;77.78;118439.88;5014994;28;20464;-26
2023/01/13 01:11:41;;;;;;;28.05;3.75;;;;;;;-143.48;78.38;118439.88;4997784;28;20026;-26
2023/01/13 01:14:06;;;;;;;26.65;3.72;;;;;;;-143.48;79.23;118439.88;5015668;28;20445;-26
2023/01/13 01:16:33;;;;;;;31.83;4.28;;;;;;;-143.48;80.09;118439.88;5014577;28;20037;-26
2023/01/13 01:19:19;;;;;;;32.75;4.40;;;;;;;-143.48;80.68;118439.88;4996912;28;20022;-26
2023/01/13 01:21:44;;;;;;;34.45;4.28;;;;;;;-143.48;82.03;118439.88;4995694;28;20050;-26
2023/01/13 01:24:10;;;;;;;31.55;4.57;;;;;;;-143.48;83.04;118439.88;5014488;28;20104;-27
2023/01/13 01:26:35;;;;;;;41.25;5.00;;;;;;;-143.48;84.19;118439.88;5014357;28;20465;-26
2023/01/13 01:29:03;;;;;;;32.00;4.57;;;;;;;-143.48;85.42;118439.88;5014262;28;20040;-26
2023/01/13 01:31:31;;;;;;;32.15;4.60;;;;;;;-143.48;85.36;118439.88;5014290;28;20030;-26
2023/01/13 01:33:57;;;;;;;44.17;5.50;;;;;;;-143.48;84.37;118439.88;5014172;28;20579;-26
2023/01/13 01:36:25;;;;;;;40.63;5.82;;;;;;;-143.48;84.79;118439.88;5014455;28;20026;-26
2023/01/13 01:38:51;;;;;;;46.83;5.38;;;;;;;-143.48;84.64;118439.88;5014431;28;20452;-26
2023/01/13 01:41:21;;;;;;;40.65;5.28;;;;;;;-143.48;85.11;118439.88;5014201;28;20087;-26
2023/01/13 01:44:05;;;;;;;44.58;5.97;;;;;;;-143.48;85.18;118439.88;5014475;28;20038;-26
2023/01/13 01:46:38;;;;;;;36.58;5.05;;;;;;;-143.48;85.00;118439.88;5014089;28;20050;-26
2023/01/13 01:49:18;;;;;;;31.92;4.10;;;;;;;-143.48;85.70;118439.88;5014086;28;20017;-26
2023/01/13 01:52:09;;;;;;;32.85;4.25;;;;;;;-143.48;86.29;118439.88;5014593;28;20022;-26
2023/01/13 01:54:49;;;;;;;42.65;4.97;;;;;;;-143.48;86.77;118439.88;5014187;28;20125;-26
2023/01/13 01:57:19;;;;;;;42.88;4.63;;;;;;;-143.48;86.82;118439.88;5013787;28;20032;-26
2023/01/13 01:59:44;;;;;;;34.67;4.55;;;;;;;-143.48;87.13;118439.88;5014044;28;20026;-26
2023/01/13 02:02:10;;;;;;;35.53;4.47;;;;;;;-143.48;86.70;118439.88;5013902;28;20079;-26
2023/01/13 02:04:40;;;;;;;40.72;5.05;;;;;;;-143.48;86.96;118439.88;5014413;28;20037;-26
2023/01/13 02:07:06;;;;;;;37.20;4.40;;;;;;;-143.48;87.10;118439.88;5013816;28;20152;-27
2023/01/13 02:09:32;;;;;;;25.38;3.88;;;;;;;-143.48;87.19;118439.88;5013715;28;20113;-27
2023/01/13 02:14:42;;;;;;;35.35;4.00;;;;;;;-143.48;86.77;118439.88;5013880;28;20045;-26
2023/01/13 02:17:20;;;;;;;36.38;4.15;;;;;;;-143.48;86.27;118439.88;5013827;28;20044;-25
2023/01/13 02:20:08;;;;;;;27.88;3.67;;;;;;;-143.48;86.09;118439.88;5013468;28;20065;-26
2023/01/13 02:24:52;;;;;;;27.48;4.10;;;;;;;-143.48;86.59;118439.88;5013860;28;20029;-26
2023/01/13 02:26:39;;;;;;;42.67;5.25;;;;;;;-143.48;85.93;118439.88;5013507;28;20404;-26
2023/01/13 02:32:29;;;;;;;26.83;3.38;;;;;;;-143.48;84.47;118439.88;5015890;28;19919;-26
2023/01/13 02:35:05;;;;;;;35.60;3.67;;;;;;;-143.48;84.66;118439.88;5014678;28;20034;-26
2023/01/13 02:37:35;;;;;;;42.53;4.88;;;;;;;-143.48;83.12;118439.88;5013730;28;20049;-26
2023/01/13 02:40:06;;;;;;;34.22;4.50;;;;;;;-143.48;83.00;118439.88;5013723;28;20026;-26
2023/01/13 02:45:45;;;;;;;42.28;5.43;;;;;;;-143.48;82.57;118439.88;5013717;28;20044;-26
2023/01/13 02:48:14;;;;;;;43.97;5.70;;;;;;;-143.48;82.88;118439.88;5013584;28;20014;-26
2023/01/13 02:51:12;;;;;;;33.70;3.65;;;;;;;-143.48;81.84;118439.88;5013646;28;20041;-26
2023/01/13 02:53:43;;;;;;;31.00;4.05;;;;;;;-143.48;82.38;118439.88;5012562;28;20068;-26
2023/01/13 02:56:11;;;;;;;37.20;4.68;;;;;;;-143.48;82.13;118439.88;5013345;28;20034;-26
2023/01/13 02:58:39;;;;;;;36.53;4.65;;;;;;;-143.48;81.91;118439.88;5013542;28;20025;-26
2023/01/13 03:01:07;;;;;;;40.47;5.00;;;;;;;-143.48;81.21;118439.88;4995655;28;20129;-26
2023/01/13 03:03:33;;;;;;;47.22;4.78;;;;;;;-143.48;81.62;118439.88;4995677;28;20026;-26
2023/01/13 03:06:15;;;;;;;31.80;4.30;;;;;;;-143.48;81.60;118439.88;5013533;28;20511;-27
2023/01/13 03:08:59;;;;;;;43.53;5.28;;;;;;;-143.48;81.15;118439.88;5013505;28;20022;-27
2023/01/13 03:11:33;;;;;;;40.35;4.90;;;;;;;-143.48;80.82;118439.88;5013496;28;20026;-26
2023/01/13 03:14:08;;;;;;;34.05;4.45;;;;;;;-143.48;80.12;118439.88;5013081;28;20153;-26
2023/01/13 03:17:01;;;;;;;30.73;4.85;;;;;;;-143.48;80.51;118439.88;5013388;28;20118;-26
2023/01/13 03:19:38;;;;;;;40.78;4.47;;;;;;;-143.48;80.38;118439.88;5013302;28;20026;-26
2023/01/13 03:22:10;;;;;;;35.58;4.50;;;;;;;-143.48;80.48;118439.88;5013312;28;20045;-27
2023/01/13 03:24:43;;;;;;;26.52;3.83;;;;;;;-143.48;79.40;118439.88;5013591;28;20496;-27
2023/01/13 03:27:38;;;;;;;27.63;4.05;;;;;;;-143.48;80.27;118439.88;5016613;28;20080;-26
2023/01/13 03:30:06;;;;;;;35.17;4.38;;;;;;;-143.48;79.82;118439.88;5016859;28;20048;-26
2023/01/13 03:32:39;;;;;;;24.63;3.50;;;;;;;-143.48;78.88;118439.88;5016457;28;20038;-26
2023/01/13 03:35:11;;;;;;;26.55;3.55;;;;;;;-143.48;79.55;118439.88;5016235;28;20030;-27
2023/01/13 03:37:40;;;;;;;33.72;4.05;;;;;;;-143.48;78.79;118439.88;4998784;28;20076;-26
2023/01/13 03:40:21;;;;;;;33.97;4.68;;;;;;;-143.48;78.55;118439.88;5016376;28;20042;-26
2023/01/13 03:45:39;;;;;;;30.70;4.32;;;;;;;-143.48;78.98;118439.88;5016656;28;20157;-26
2023/01/13 03:48:08;;;;;;;28.60;4.20;;;;;;;-143.48;78.82;118439.88;5016225;28;20045;-27
2023/01/13 03:50:43;;;;;;;31.90;3.70;;;;;;;-143.48;79.57;118439.88;5016082;28;20053;-26
2023/01/13 03:53:22;;;;;;;38.42;5.13;;;;;;;-143.48;78.90;118439.88;5016135;28;20030;-27
2023/01/13 03:55:51;;;;;;;38.33;3.95;;;;;;;-143.48;79.11;118439.88;5016058;28;20133;-26
2023/01/13 03:58:22;;;;;;;32.05;3.83;;;;;;;-143.48;78.73;118439.88;5016159;28;20045;-27
2023/01/13 04:00:58;;;;;;;32.45;4.55;;;;;;;-143.48;80.25;118439.88;5016040;28;20562;-27
2023/01/13 04:03:49;;;;;;;32.72;4.68;;;;;;;-143.48;79.81;118439.88;5015986;28;20026;-27
2023/01/13 04:06:30;;;;;;;36.40;4.90;;;;;;;-143.48;80.53;118439.88;4998500;28;20029;-26
2023/01/13 04:09:10;;;;;;;34.97;4.22;;;;;;;-143.48;80.27;118439.88;5015848;28;20380;-26
2023/01/13 04:11:42;;;;;;;32.65;3.80;;;;;;;-143.48;80.20;118439.88;5016074;28;20022;-27
2023/01/13 04:14:10;;;;;;;23.60;3.22;;;;;;;-143.48;81.03;118439.88;5015808;28;20038;-27
2023/01/13 04:16:36;;;;;;;26.48;3.72;;;;;;;-143.48;80.84;118439.88;5016020;28;20025;-26
2023/01/13 04:19:01;;;;;;;22.63;3.67;;;;;;;-143.48;80.68;118439.88;5015512;28;20051;-27
2023/01/13 04:21:28;;;;;;;18.38;2.78;;;;;;;-143.48;81.19;118439.88;5015855;28;20491;-27
2023/01/13 04:23:53;;;;;;;25.55;3.20;;;;;;;-143.48;81.67;118439.88;5015598;28;20105;-26
2023/01/13 04:26:19;;;;;;;20.13;3.42;;;;;;;-143.48;82.12;118439.88;5015734;28;20108;-26
2023/01/13 04:28:45;;;;;;;26.25;3.90;;;;;;;-143.48;82.14;118439.88;5015804;28;20021;-26
2023/01/13 04:31:11;;;;;;;23.65;2.78;;;;;;;-143.48;81.86;118439.88;5015647;28;20030;-26
2023/01/13 04:33:36;;;;;;;29.98;3.75;;;;;;;-143.48;81.65;118439.88;5015299;28;20495;-26
2023/01/13 04:36:01;;;;;;;24.02;2.95;;;;;;;-143.48;81.94;118439.88;5015396;28;20393;-26
2023/01/13 04:38:30;;;;;;;25.20;2.85;;;;;;;-143.48;81.50;118439.88;5015149;28;20037;-26
2023/01/13 04:40:56;;;;;;;20.80;3.03;;;;;;;-143.48;81.42;118439.88;4997673;28;20034;-26
2023/01/13 04:43:21;;;;;;;18.88;3.00;;;;;;;-143.48;81.57;118439.88;5015202;28;20388;-29
2023/01/13 04:45:46;;;;;;;18.08;2.50;;;;;;;-143.48;81.13;118439.88;5015751;28;20030;-26
2023/01/13 04:48:12;;;;;;;22.02;2.67;;;;;;;-143.48;81.38;118439.88;5015670;28;20018;-26
2023/01/13 04:50:38;;;;;;;22.17;2.65;;;;;;;-143.48;80.90;118439.88;5015604;28;20030;-26
2023/01/13 04:53:03;;;;;;;17.25;2.70;;;;;;;-143.48;81.12;118439.88;5015248;28;20488;-26
2023/01/13 04:55:30;;;;;;;15.13;2.45;;;;;;;-143.48;79.94;118439.88;5015305;28;20443;-26
2023/01/13 04:58:00;;;;;;;21.60;2.50;;;;;;;-143.48;79.59;118439.88;5015221;28;20372;-27
2023/01/13 05:00:25;;;;;;;15.50;2.35;;;;;;;-143.48;79.37;118439.88;5015204;28;20477;-26
2023/01/13 05:02:51;;;;;;;17.92;2.05;;;;;;;-143.48;79.53;118439.88;5015137;28;20076;-26
2023/01/13 05:05:17;;;;;;;15.93;2.38;;;;;;;-143.48;78.46;118439.88;5014992;28;20057;-26
2023/01/13 05:07:42;;;;;;;15.85;2.22;;;;;;;-143.48;78.88;118439.88;5015872;28;20018;-26
2023/01/13 05:10:08;;;;;;;12.68;2.65;;;;;;;-143.48;78.71;118439.88;5014746;28;20030;-26
2023/01/13 05:18:01;;;;;;;21.00;2.72;;;;;;;-143.48;78.30;118439.88;5014919;28;20534;-27
2023/01/13 05:20:27;;;;;;;11.05;2.17;;;;;;;-143.48;78.86;118439.88;5014538;28;20033;-26
2023/01/13 05:25:38;;;;;;;14.73;2.58;;;;;;;-143.48;78.80;118439.88;5015277;28;20084;-26
2023/01/13 05:28:05;;;;;;;15.52;2.10;;;;;;;-143.48;78.61;118439.88;5014384;28;20515;-26
2023/01/13 05:30:36;;;;;;;19.00;2.67;;;;;;;-143.48;78.76;118439.88;5014429;28;20412;-26
2023/01/13 05:33:02;;;;;;;13.35;2.20;;;;;;;-143.48;79.43;118439.88;5014436;28;20047;-26
2023/01/13 05:35:28;;;;;;;20.20;2.17;;;;;;;-143.48;79.45;118439.88;5014565;28;20036;-26
2023/01/13 05:37:54;;;;;;;17.08;2.40;;;;;;;-143.48;79.11;118439.88;5014374;28;20115;-26
2023/01/13 05:43:19;;;;;;;20.10;2.45;;;;;;;-143.48;79.43;118439.88;5015033;28;20116;-26
2023/01/13 05:45:49;;;;;;;16.27;2.15;;;;;;;-143.48;78.95;118439.88;5014434;28;20018;-27
2023/01/13 05:48:16;;;;;;;17.80;2.97;;;;;;;-143.48;78.94;118439.88;5013603;28;20022;-27
2023/01/13 05:50:42;;;;;;;17.27;2.50;;;;;;;-143.48;77.85;118439.88;5014674;28;20030;-26
2023/01/13 05:53:07;;;;;;;18.15;2.60;;;;;;;-143.48;78.59;118439.88;5014244;28;20467;-26
2023/01/13 05:55:33;;;;;;;22.55;2.15;;;;;;;-143.48;78.09;118439.88;5014254;28;20022;-26
2023/01/13 05:57:59;;;;;;;18.02;2.30;;;;;;;-143.48;77.38;118439.88;5014103;28;20027;-26
2023/01/13 06:00:24;;;;;;;22.40;2.83;;;;;;;-143.48;76.40;118439.88;4996177;28;20038;-27
2023/01/13 06:02:50;;;;;;;17.02;2.75;;;;;;;-143.48;75.43;118439.88;5013874;28;20021;-26
2023/01/13 06:05:15;;;;;;;13.75;2.45;;;;;;;-143.48;75.29;118439.88;5014127;28;20022;-26
2023/01/13 06:07:41;;;;;;;21.00;2.67;;;;;;;-143.48;74.75;118439.88;5014094;28;20353;-26
2023/01/13 06:10:07;;;;;;;22.60;3.78;;;;;;;-143.48;74.03;118439.88;5014012;28;20033;-27
2023/01/13 06:12:32;;;;;;;19.55;2.22;;;;;;;-143.48;73.75;118439.88;5013734;28;20025;-27
2023/01/13 06:14:57;;;;;;;12.02;2.75;;;;;;;-143.48;74.25;118439.88;5013969;28;20026;-26
2023/01/13 06:17:23;;;;;;;14.07;2.35;;;;;;;-143.48;73.34;118439.88;5013591;28;20029;-26
2023/01/13 06:19:49;;;;;;;25.42;3.67;;;;;;;-143.48;73.40;118439.88;5013639;28;20109;-26
2023/01/13 06:22:19;;;;;;;22.48;2.72;;;;;;;-143.48;73.08;118439.88;5013866;28;20029;-27
2023/01/13 06:24:45;;;;;;;20.10;2.75;;;;;;;-143.48;73.60;118439.88;5013626;28;20469;-26
2023/01/13 06:27:11;;;;;;;20.42;3.55;;;;;;;-143.48;73.51;118439.88;5013582;28;20032;-26
2023/01/13 06:29:36;;;;;;;21.52;2.67;;;;;;;-143.48;73.97;118439.88;5013540;28;20041;-26
2023/01/13 06:32:05;;;;;;;15.38;3.00;;;;;;;-143.48;73.14;118439.88;5012549;28;20045;-26
2023/01/13 06:34:32;;;;;;;20.05;2.75;;;;;;;-143.48;73.69;118439.88;5013962;28;20042;-26
2023/01/13 06:36:58;;;;;;;19.23;2.58;;;;;;;-143.48;73.69;118439.88;5013573;28;20026;-27
2023/01/13 06:39:27;;;;;;;25.05;2.72;;;;;;;-143.48;73.11;118439.88;5011815;28;20025;-26
2023/01/13 06:44:38;;;;;;;22.95;3.05;;;;;;;-143.48;73.79;118439.88;5011166;28;20046;-26
2023/01/13 06:47:04;;;;;;;19.50;2.90;;;;;;;-143.48;73.48;118439.88;5011197;28;20428;-26
2023/01/13 06:49:29;;;;;;;25.13;3.28;;;;;;;-143.48;73.19;118439.88;5011071;28;20017;-26
2023/01/13 06:51:54;;;;;;;18.20;2.80;;;;;;;-143.48;73.81;118439.88;5011448;28;20037;-27
2023/01/13 06:54:20;;;;;;;20.85;2.75;;;;;;;-143.48;72.65;118439.88;5011376;28;20485;-26
2023/01/13 06:56:45;;;;;;;17.63;2.45;;;;;;;-143.48;72.14;118439.88;5012282;28;20053;-27
2023/01/13 06:59:10;;;;;;;27.05;2.92;;;;;;;-143.48;72.47;118439.88;5013386;28;20034;-26
2023/01/13 07:01:35;;;;;;;20.45;2.90;;;;;;;-143.48;70.94;118439.88;5016459;28;20044;-26
2023/01/13 07:04:01;;;;;;;19.55;2.78;;;;;;;-143.48;71.63;118439.88;5016949;28;20018;-26
2023/01/13 07:06:27;;;;;;;27.02;3.03;;;;;;;-143.48;71.84;118439.88;5016965;28;20036;-26
2023/01/13 07:08:53;;;;;;;20.95;2.90;;;;;;;-143.48;71.95;118439.88;5017124;28;20072;-26
2023/01/13 07:11:18;;;;;;;22.80;3.15;;;;;;;-143.48;71.06;118439.88;5017304;28;20415;-26
2023/01/13 07:16:27;;;;;;;24.80;3.33;;;;;;;-143.48;71.91;118439.88;5016928;28;20072;-26
2023/01/13 07:18:53;;;;;;;19.88;3.63;;;;;;;-143.48;71.41;118439.88;5016432;28;20014;-27
2023/01/13 07:21:19;;;;;;;23.13;3.28;;;;;;;-143.48;70.92;118439.88;5016836;28;20069;-26
2023/01/13 07:23:45;;;;;;;27.15;4.22;;;;;;;-143.48;70.84;118439.88;5016421;28;20061;-26
2023/01/13 07:26:11;;;;;;;17.33;2.85;;;;;;;-143.48;71.58;118439.88;5016410;28;20092;-26
2023/01/13 07:28:37;;;;;;;15.35;3.30;;;;;;;-143.48;71.27;118439.88;5016663;28;20022;-26
2023/01/13 07:31:03;;;;;;;20.83;3.60;;;;;;;-143.48;72.32;118439.88;5016779;28;20068;-26
2023/01/13 07:33:31;;;;;;;20.98;3.53;;;;;;;-143.48;74.23;118439.88;5016280;28;20532;-26
2023/01/13 07:35:59;;;;;;;21.10;2.85;;;;;;;-143.48;74.43;118439.88;5016794;28;20064;-27
2023/01/13 07:38:25;;;;;;;22.45;3.03;;;;;;;-143.48;76.55;118439.88;5016584;28;20376;-26
2023/01/13 07:40:51;;;;;;;18.17;3.33;;;;;;;-143.48;74.30;118439.88;5016780;28;20121;-26
2023/01/13 07:43:31;;;;;;;23.55;3.78;;;;;;;-143.48;74.36;118439.88;5016368;28;20112;-26
2023/01/13 07:45:58;;;;;;;23.05;3.17;;;;;;;-143.48;74.92;118439.88;5017147;28;20068;-25
2023/01/13 07:48:24;;;;;;;38.63;5.38;;;;;;;-143.48;76.06;118439.88;4998480;28;20022;-26
2023/01/13 07:50:50;;;;;;;25.75;4.90;;;;;;;-143.48;76.94;118439.88;5016243;28;20483;-27
2023/01/13 07:53:15;;;;;;;26.92;3.40;;;;;;;-143.48;77.19;118439.88;5016322;28;20038;-26
2023/01/13 07:55:41;;;;;;;25.20;3.13;;;;;;;-143.48;78.32;118439.88;4998664;28;20030;-27
2023/01/13 07:58:08;;;;;;;24.23;3.47;;;;;;;-143.48;77.80;118439.88;5016184;28;20127;-26
2023/01/13 08:00:33;;;;;;;27.13;3.47;;;;;;;-143.48;79.27;118439.88;5016110;28;20358;-27
2023/01/13 08:02:59;;;;;;;27.90;3.95;;;;;;;-143.48;79.79;118439.88;5016284;28;20032;-27
2023/01/13 08:05:24;;;;;;;19.35;3.20;;;;;;;-143.48;79.86;118439.88;5016266;28;20030;-27
2023/01/13 08:07:49;;;;;;;30.42;3.53;;;;;;;-143.48;79.51;118439.88;5016174;28;20026;-28
2023/01/13 08:10:15;;;;;;;24.52;3.25;;;;;;;-143.48;79.66;118439.88;5016102;28;20060;-27
2023/01/13 08:15:24;;;;;;;26.60;3.88;;;;;;;-143.48;80.67;118439.88;5015827;28;20045;-27
2023/01/13 08:17:49;;;;;;;21.35;2.90;;;;;;;-143.48;80.27;118439.88;5015378;28;20420;-27
2023/01/13 08:20:15;;;;;;;31.40;4.20;;;;;;;-143.48;82.51;118439.88;5015519;28;20392;-27
2023/01/13 08:22:40;;;;;;;23.90;2.88;;;;;;;-143.48;84.34;118439.88;4997534;28;20064;-28
2023/01/13 08:25:06;;;;;;;25.52;3.33;;;;;;;-143.48;83.99;118439.88;5015618;28;20037;-27
2023/01/13 08:27:31;;;;;;;22.27;2.97;;;;;;;-143.48;83.54;118439.88;5015477;28;20388;-27
2023/01/13 08:29:56;;;;;;;20.48;3.70;;;;;;;-143.48;84.14;118439.88;5015262;28;20025;-27
2023/01/13 08:32:22;;;;;;;23.33;3.25;;;;;;;-143.48;83.78;118439.88;5015397;28;20456;-27
2023/01/13 08:34:47;;;;;;;24.88;3.17;;;;;;;-143.48;84.13;118439.88;5015591;28;20121;-28
2023/01/13 08:37:12;;;;;;;24.50;3.30;;;;;;;-143.48;83.62;118439.88;5015303;28;20060;-27
2023/01/13 08:39:38;;;;;;;24.88;3.88;;;;;;;-143.48;83.62;118439.88;5015163;28;20018;-27
2023/01/13 08:42:04;;;;;;;25.42;3.03;;;;;;;-143.48;83.61;118439.88;5015500;28;20026;-27
2023/01/13 08:44:30;;;;;;;31.35;3.30;;;;;;;-143.48;84.66;118439.88;5015194;28;20025;-27
2023/01/13 08:46:57;;;;;;;24.15;3.50;;;;;;;-143.48;83.58;118439.88;5015606;28;20061;-27
2023/01/13 08:49:23;;;;;;;25.92;3.78;;;;;;;-143.48;82.67;118439.88;5015256;28;20013;-27
2023/01/13 08:51:49;;;;;;;22.75;3.05;;;;;;;-143.48;82.62;118439.88;5015465;28;20022;-28
2023/01/13 08:54:16;;;;;;;23.02;3.35;;;;;;;-143.48;83.00;118439.88;5015585;28;20036;-27
2023/01/13 08:56:43;;;;;;;24.55;3.85;;;;;;;-143.48;83.03;118439.88;5014916;28;20061;-27
2023/01/13 08:59:11;;;;;;;16.90;3.08;;;;;;;-143.48;81.81;118439.88;5014312;28;20041;-27
2023/01/13 09:01:38;;;;;;;22.15;3.10;;;;;;;-143.48;82.00;118439.88;5014668;28;20057;-29
2023/01/13 09:04:04;;;;;;;22.02;2.92;;;;;;;-143.48;81.22;118439.88;5014577;28;20076;-27
2023/01/13 09:06:30;;;;;;;37.17;4.13;;;;;;;-143.48;80.80;118439.88;5014088;28;20037;-27
2023/01/13 09:08:55;;;;;;;22.10;3.10;;;;;;;-143.48;80.98;118439.88;5014692;28;20018;-27
2023/01/13 09:14:16;;;;;;;22.35;2.90;;;;;;;-143.48;81.29;118439.88;5013351;28;20041;-27
2023/01/13 09:16:41;;;;;;;23.75;2.95;;;;;;;-143.48;79.87;118439.88;5014283;28;20045;-27
2023/01/13 09:19:06;;;;;;;28.77;4.07;;;;;;;-143.48;81.26;118439.88;5013695;28;20049;-28
2023/01/13 09:21:32;;;;;;;27.70;3.25;;;;;;;-143.48;81.44;118439.88;5013873;28;20033;-27
2023/01/13 09:23:57;;;;;;;20.90;3.65;;;;;;;-143.48;81.05;118439.88;5013142;28;20113;-27
2023/01/13 09:26:22;;;;;;;26.65;3.92;;;;;;;-143.48;81.75;118439.88;5014089;28;20022;-27
2023/01/13 09:28:48;;;;;;;31.20;3.55;;;;;;;-143.48;81.12;118439.88;5014620;28;20080;-28
2023/01/13 09:31:13;;;;;;;31.85;4.82;;;;;;;-143.48;81.53;118439.88;5014353;28;20096;-27
2023/01/13 09:36:22;;;;;;;19.85;3.38;;;;;;;-143.48;80.86;118439.88;5014915;28;20180;-27
2023/01/13 09:38:50;;;;;;;22.38;3.33;;;;;;;-143.48;79.95;118439.88;5014380;28;20025;-27
2023/01/13 09:44:15;;;;;;;23.10;4.30;;;;;;;-143.48;81.41;118439.88;5014488;28;20040;-28
2023/01/13 09:46:46;;;;;;;19.27;3.10;;;;;;;-143.48;81.02;118439.88;5014151;28;20108;-27
2023/01/13 09:49:21;;;;;;;24.23;3.55;;;;;;;-143.48;81.29;118439.88;5014649;28;20022;-27
2023/01/13 09:52:14;;;;;;;23.10;4.10;;;;;;;-143.48;82.08;118439.88;5013916;28;20025;-28
2023/01/13 09:54:45;;;;;;;19.90;2.70;;;;;;;-143.48;79.74;118439.88;5014205;28;20026;-27
2023/01/13 09:57:13;;;;;;;19.75;2.83;;;;;;;-143.48;80.42;118439.88;5014275;28;20034;-28
2023/01/13 09:59:38;;;;;;;22.58;3.17;;;;;;;-143.48;80.97;118439.88;5013880;28;20025;-28
2023/01/13 10:02:35;;;;;;;22.38;3.20;;;;;;;-143.48;81.40;118439.88;5014153;28;20030;-27
2023/01/13 10:05:02;;;;;;;23.33;3.38;;;;;;;-143.48;80.80;118439.88;5013837;28;20026;-28
2023/01/13 10:07:32;;;;;;;23.20;3.50;;;;;;;-143.48;82.29;118439.88;5013743;28;20111;-28
2023/01/13 10:10:00;;;;;;;19.58;2.95;;;;;;;-143.48;81.39;118439.88;5013778;28;20057;-28
2023/01/13 10:15:18;;;;;;;23.55;2.75;;;;;;;-143.48;80.50;118439.88;5014183;28;20148;-27
2023/01/13 10:18:10;;;;;;;25.27;3.63;;;;;;;-143.48;81.00;118439.88;5013807;28;20057;-28
2023/01/13 10:20:39;;;;;;;27.13;3.17;;;;;;;-143.48;80.10;118439.88;5002867;28;20046;-27
2023/01/13 10:23:18;;;;;;;27.13;3.33;;;;;;;-143.48;78.39;118439.88;5013608;28;20037;-28
2023/01/13 10:26:05;;;;;;;22.65;3.47;;;;;;;-143.48;78.67;118439.88;5013845;28;20037;-28
2023/01/13 10:28:30;;;;;;;18.15;2.60;;;;;;;-143.48;79.05;118439.88;5013605;28;20026;-27
2023/01/13 10:30:56;;;;;;;20.45;3.40;;;;;;;-143.48;77.52;118439.88;5013567;28;20033;-28
2023/01/13 10:33:28;;;;;;;22.40;3.47;;;;;;;-143.48;74.97;118439.88;5013276;28;20057;-27
2023/01/13 10:35:59;;;;;;;23.13;2.58;;;;;;;-143.48;75.78;118439.88;5016233;28;20033;-27
2023/01/13 10:38:34;;;;;;;27.55;3.65;;;;;;;-143.48;75.14;118439.88;5017129;28;20041;-28
2023/01/13 10:41:02;;;;;;;17.15;2.70;;;;;;;-143.48;73.75;118439.88;5018020;28;20127;-27
2023/01/13 10:43:29;;;;;;;20.55;2.90;;;;;;;-143.48;74.89;118439.88;5017464;28;20057;-27
2023/01/13 10:45:59;;;;;;;16.05;2.70;;;;;;;-143.48;72.74;118439.88;5017385;28;20022;-28
2023/01/13 10:48:57;;;;;;;19.95;2.50;;;;;;;-143.48;72.42;118439.88;5017636;28;20044;-28
2023/01/13 10:51:36;;;;;;;24.05;2.55;;;;;;;-143.48;73.64;118439.88;5014689;28;20045;-28
2023/01/13 10:54:21;;;;;;;18.05;2.22;;;;;;;-143.48;72.85;118439.88;5017418;28;20079;-27
2023/01/13 10:56:47;;;;;;;22.23;3.08;;;;;;;-143.48;71.85;118439.88;5000875;28;20033;-27
2023/01/13 10:59:17;;;;;;;15.75;2.78;;;;;;;-143.48;71.43;118439.88;5016341;28;20018;-27
2023/01/13 11:01:56;;;;;;;24.63;3.20;;;;;;;-143.48;70.68;118439.88;5015015;28;20057;-28
2023/01/13 11:04:31;;;;;;;13.85;2.50;;;;;;;-143.48;71.98;118439.88;5015302;28;20471;-27
2023/01/13 11:06:58;;;;;;;19.45;2.72;;;;;;;-143.48;71.78;118439.88;5015235;28;20057;-28
2023/01/13 11:09:25;;;;;;;23.15;2.70;;;;;;;-143.48;72.33;118439.88;5014938;28;20029;-28
2023/01/13 11:11:54;;;;;;;13.50;2.30;;;;;;;-143.48;72.07;118439.88;5015335;28;20157;-28
2023/01/13 11:14:38;;;;;;;19.90;2.70;;;;;;;-143.48;71.53;118439.88;5016088;28;20028;-28
2023/01/13 11:17:27;;;;;;;20.35;3.22;;;;;;;-143.48;74.11;118439.88;5016886;28;20033;-28
2023/01/13 11:20:02;;;;;;;21.08;4.63;;;;;;;-143.48;73.08;118439.88;5016786;28;20342;-28
2023/01/13 11:22:33;;;;;;;16.52;2.58;;;;;;;-143.48;71.88;118439.88;5017359;28;20037;-27
2023/01/13 11:25:12;;;;;;;17.85;3.10;;;;;;;-143.48;71.26;118439.88;5016450;28;20030;-27
2023/01/13 11:28:08;;;;;;;17.48;2.60;;;;;;;-143.48;71.90;118439.88;5016666;28;20085;-27
2023/01/13 11:30:41;;;;;;;21.05;2.60;;;;;;;-143.48;71.62;118439.88;5016644;28;20113;-28
2023/01/13 11:33:18;;;;;;;23.08;3.80;;;;;;;-143.48;72.36;118439.88;5016569;28;20524;-28
2023/01/13 11:35:57;;;;;;;21.35;3.15;;;;;;;-143.48;71.74;118439.88;5016790;28;20393;-28
2023/01/13 11:38:39;;;;;;;17.77;2.50;;;;;;;-143.48;70.57;118439.88;5016507;28;20469;-28
2023/01/13 11:41:14;;;;;;;22.88;3.15;;;;;;;-143.48;71.67;118439.88;5015947;28;20358;-27
2023/01/13 11:44:12;;;;;;;23.63;2.60;;;;;;;-143.48;72.27;118439.88;5014942;28;20358;-27
2023/01/13 11:46:42;;;;;;;16.98;2.35;;;;;;;-143.48;71.82;118439.88;5015900;28;20061;-27
2023/01/13 11:49:21;;;;;;;20.83;2.60;;;;;;;-143.48;69.89;118439.88;4998485;28;20026;-27
2023/01/13 11:51:56;;;;;;;16.98;2.80;;;;;;;-143.48;72.45;118439.88;5016001;28;20384;-28
2023/01/13 11:54:46;;;;;;;18.42;3.15;;;;;;;-143.48;71.51;118439.88;5016410;28;20056;-27
2023/01/13 11:57:29;;;;;;;14.63;2.65;;;;;;;-143.48;73.20;118439.88;5016159;28;20026;-28
2023/01/13 12:00:13;;;;;;;21.92;3.10;;;;;;;-143.48;71.53;118439.88;5016036;28;20366;-28